sensor_id;sensor_type;location;lat;lon;timestamp;P1;durP1;ratioP1;P2;durP2;ratioP2
53545;SDS011;39432;51.902;10.844;2023-06-26T00:00:39;10.57;;;3.55;;
53545;SDS011;39432;51.902;10.844;2023-06-26T00:03:09;8.32;;;3.40;;
53545;SDS011;39432;51.902;10.844;2023-06-26T00:05:40;5.95;;;3.60;;
53545;SDS011;39432;51.902;10.844;2023-06-26T00:08:09;6.80;;;3.45;;
53545;SDS011;39432;51.902;10.844;2023-06-26T00:10:39;6.07;;;3.80;;
53545;SDS011;39432;51.902;10.844;2023-06-26T00:13:09;6.22;;;3.53;;
53545;SDS011;39432;51.902;10.844;2023-06-26T00:15:42;5.40;;;3.08;;
53545;SDS011;39432;51.902;10.844;2023-06-26T00:18:12;4.43;;;3.20;;
53545;SDS011;39432;51.902;10.844;2023-06-26T00:20:41;18.25;;;4.05;;
53545;SDS011;39432;51.902;10.844;2023-06-26T00:23:12;4.40;;;3.05;;
53545;SDS011;39432;51.902;10.844;2023-06-26T00:25:43;4.63;;;3.35;;
53545;SDS011;39432;51.902;10.844;2023-06-26T00:28:13;6.53;;;3.13;;
53545;SDS011;39432;51.902;10.844;2023-06-26T00:30:45;6.13;;;3.20;;
53545;SDS011;39432;51.902;10.844;2023-06-26T00:33:15;6.38;;;3.22;;
53545;SDS011;39432;51.902;10.844;2023-06-26T00:35:45;4.93;;;3.33;;
53545;SDS011;39432;51.902;10.844;2023-06-26T00:38:15;6.13;;;3.50;;
53545;SDS011;39432;51.902;10.844;2023-06-26T00:40:45;8.52;;;3.25;;
53545;SDS011;39432;51.902;10.844;2023-06-26T00:43:17;5.50;;;3.47;;
53545;SDS011;39432;51.902;10.844;2023-06-26T00:45:50;6.47;;;3.42;;
53545;SDS011;39432;51.902;10.844;2023-06-26T00:48:20;7.65;;;2.97;;
53545;SDS011;39432;51.902;10.844;2023-06-26T00:50:50;5.35;;;3.22;;
53545;SDS011;39432;51.902;10.844;2023-06-26T00:53:20;5.60;;;3.40;;
53545;SDS011;39432;51.902;10.844;2023-06-26T00:55:50;5.07;;;3.03;;
53545;SDS011;39432;51.902;10.844;2023-06-26T00:58:21;6.47;;;2.90;;
53545;SDS011;39432;51.902;10.844;2023-06-26T01:00:56;5.75;;;3.00;;
53545;SDS011;39432;51.902;10.844;2023-06-26T01:03:27;7.07;;;3.00;;
53545;SDS011;39432;51.902;10.844;2023-06-26T01:05:57;13.77;;;3.88;;
53545;SDS011;39432;51.902;10.844;2023-06-26T01:08:31;4.65;;;3.28;;
53545;SDS011;39432;51.902;10.844;2023-06-26T01:11:01;5.68;;;3.17;;
53545;SDS011;39432;51.902;10.844;2023-06-26T01:13:31;6.90;;;3.30;;
53545;SDS011;39432;51.902;10.844;2023-06-26T01:16:05;9.77;;;3.55;;
53545;SDS011;39432;51.902;10.844;2023-06-26T01:18:35;7.97;;;3.58;;
53545;SDS011;39432;51.902;10.844;2023-06-26T01:21:10;6.95;;;3.60;;
53545;SDS011;39432;51.902;10.844;2023-06-26T01:23:46;9.35;;;3.42;;
53545;SDS011;39432;51.902;10.844;2023-06-26T01:26:28;6.80;;;3.40;;
53545;SDS011;39432;51.902;10.844;2023-06-26T01:29:02;7.10;;;3.53;;
53545;SDS011;39432;51.902;10.844;2023-06-26T01:31:33;10.73;;;3.90;;
53545;SDS011;39432;51.902;10.844;2023-06-26T01:34:04;6.35;;;3.72;;
53545;SDS011;39432;51.902;10.844;2023-06-26T01:36:35;5.38;;;3.33;;
53545;SDS011;39432;51.902;10.844;2023-06-26T01:39:06;5.97;;;3.60;;
53545;SDS011;39432;51.902;10.844;2023-06-26T01:41:38;5.70;;;4.10;;
53545;SDS011;39432;51.902;10.844;2023-06-26T01:44:11;5.93;;;3.55;;
53545;SDS011;39432;51.902;10.844;2023-06-26T01:46:53;9.98;;;4.20;;
53545;SDS011;39432;51.902;10.844;2023-06-26T01:49:30;12.30;;;4.25;;
53545;SDS011;39432;51.902;10.844;2023-06-26T01:52:07;7.45;;;3.25;;
53545;SDS011;39432;51.902;10.844;2023-06-26T01:54:43;6.72;;;3.83;;
53545;SDS011;39432;51.902;10.844;2023-06-26T01:57:24;7.45;;;3.67;;
53545;SDS011;39432;51.902;10.844;2023-06-26T01:59:58;6.18;;;4.28;;
53545;SDS011;39432;51.902;10.844;2023-06-26T02:02:40;6.45;;;3.85;;
53545;SDS011;39432;51.902;10.844;2023-06-26T02:05:13;7.43;;;3.72;;
53545;SDS011;39432;51.902;10.844;2023-06-26T02:07:42;5.55;;;3.70;;
53545;SDS011;39432;51.902;10.844;2023-06-26T02:10:13;10.15;;;3.78;;
53545;SDS011;39432;51.902;10.844;2023-06-26T02:12:45;6.80;;;3.75;;
53545;SDS011;39432;51.902;10.844;2023-06-26T02:15:15;4.72;;;3.70;;
53545;SDS011;39432;51.902;10.844;2023-06-26T02:17:45;7.90;;;4.00;;
53545;SDS011;39432;51.902;10.844;2023-06-26T02:20:15;8.27;;;3.97;;
53545;SDS011;39432;51.902;10.844;2023-06-26T02:22:45;6.25;;;3.60;;
53545;SDS011;39432;51.902;10.844;2023-06-26T02:25:15;8.13;;;4.25;;
53545;SDS011;39432;51.902;10.844;2023-06-26T02:27:47;7.55;;;3.65;;
53545;SDS011;39432;51.902;10.844;2023-06-26T02:30:18;6.75;;;3.88;;
53545;SDS011;39432;51.902;10.844;2023-06-26T02:32:48;8.48;;;4.10;;
53545;SDS011;39432;51.902;10.844;2023-06-26T02:35:18;9.07;;;4.43;;
53545;SDS011;39432;51.902;10.844;2023-06-26T02:37:48;12.70;;;4.30;;
53545;SDS011;39432;51.902;10.844;2023-06-26T02:40:18;11.65;;;4.45;;
53545;SDS011;39432;51.902;10.844;2023-06-26T02:42:51;7.35;;;4.60;;
53545;SDS011;39432;51.902;10.844;2023-06-26T02:45:21;8.18;;;4.47;;
53545;SDS011;39432;51.902;10.844;2023-06-26T02:47:50;5.25;;;3.83;;
53545;SDS011;39432;51.902;10.844;2023-06-26T02:50:21;7.65;;;4.40;;
53545;SDS011;39432;51.902;10.844;2023-06-26T02:53:04;8.30;;;4.30;;
53545;SDS011;39432;51.902;10.844;2023-06-26T02:55:36;7.20;;;4.30;;
53545;SDS011;39432;51.902;10.844;2023-06-26T02:58:08;8.05;;;4.43;;
53545;SDS011;39432;51.902;10.844;2023-06-26T03:00:38;9.80;;;4.70;;
53545;SDS011;39432;51.902;10.844;2023-06-26T03:03:14;8.23;;;4.40;;
53545;SDS011;39432;51.902;10.844;2023-06-26T03:05:44;7.68;;;4.18;;
53545;SDS011;39432;51.902;10.844;2023-06-26T03:08:14;10.77;;;4.22;;
53545;SDS011;39432;51.902;10.844;2023-06-26T03:10:44;8.63;;;5.05;;
53545;SDS011;39432;51.902;10.844;2023-06-26T03:13:17;10.75;;;4.20;;
53545;SDS011;39432;51.902;10.844;2023-06-26T03:15:47;7.18;;;4.10;;
53545;SDS011;39432;51.902;10.844;2023-06-26T03:18:17;7.00;;;3.92;;
53545;SDS011;39432;51.902;10.844;2023-06-26T03:20:46;12.38;;;4.60;;
53545;SDS011;39432;51.902;10.844;2023-06-26T03:23:17;7.18;;;4.32;;
53545;SDS011;39432;51.902;10.844;2023-06-26T03:25:47;9.05;;;4.18;;
53545;SDS011;39432;51.902;10.844;2023-06-26T03:28:27;8.48;;;3.83;;
53545;SDS011;39432;51.902;10.844;2023-06-26T03:30:57;8.95;;;4.38;;
53545;SDS011;39432;51.902;10.844;2023-06-26T03:33:27;7.22;;;3.90;;
53545;SDS011;39432;51.902;10.844;2023-06-26T03:35:58;6.40;;;3.85;;
53545;SDS011;39432;51.902;10.844;2023-06-26T03:38:28;8.38;;;3.70;;
53545;SDS011;39432;51.902;10.844;2023-06-26T03:40:59;6.93;;;4.10;;
53545;SDS011;39432;51.902;10.844;2023-06-26T03:43:32;8.85;;;3.95;;
53545;SDS011;39432;51.902;10.844;2023-06-26T03:46:15;5.57;;;3.25;;
53545;SDS011;39432;51.902;10.844;2023-06-26T03:48:46;6.10;;;3.40;;
53545;SDS011;39432;51.902;10.844;2023-06-26T03:51:16;6.90;;;3.42;;
53545;SDS011;39432;51.902;10.844;2023-06-26T03:53:46;5.72;;;3.42;;
53545;SDS011;39432;51.902;10.844;2023-06-26T03:56:16;6.72;;;3.55;;
53545;SDS011;39432;51.902;10.844;2023-06-26T03:58:49;5.78;;;3.72;;
53545;SDS011;39432;51.902;10.844;2023-06-26T04:01:19;8.43;;;3.88;;
53545;SDS011;39432;51.902;10.844;2023-06-26T04:03:49;7.28;;;3.53;;
53545;SDS011;39432;51.902;10.844;2023-06-26T04:06:19;6.53;;;3.55;;
53545;SDS011;39432;51.902;10.844;2023-06-26T04:08:49;4.38;;;2.90;;
53545;SDS011;39432;51.902;10.844;2023-06-26T04:11:19;7.10;;;3.40;;
53545;SDS011;39432;51.902;10.844;2023-06-26T04:13:51;4.78;;;3.17;;
53545;SDS011;39432;51.902;10.844;2023-06-26T04:16:21;4.95;;;3.00;;
53545;SDS011;39432;51.902;10.844;2023-06-26T04:18:52;4.97;;;2.85;;
53545;SDS011;39432;51.902;10.844;2023-06-26T04:21:23;7.13;;;3.20;;
53545;SDS011;39432;51.902;10.844;2023-06-26T04:23:54;5.07;;;3.25;;
53545;SDS011;39432;51.902;10.844;2023-06-26T04:26:23;6.45;;;3.38;;
53545;SDS011;39432;51.902;10.844;2023-06-26T04:28:57;5.82;;;2.75;;
53545;SDS011;39432;51.902;10.844;2023-06-26T04:31:27;7.35;;;2.97;;
53545;SDS011;39432;51.902;10.844;2023-06-26T04:33:57;6.28;;;2.95;;
53545;SDS011;39432;51.902;10.844;2023-06-26T04:36:27;7.93;;;3.03;;
53545;SDS011;39432;51.902;10.844;2023-06-26T04:38:58;5.65;;;3.10;;
53545;SDS011;39432;51.902;10.844;2023-06-26T04:41:28;6.65;;;3.10;;
53545;SDS011;39432;51.902;10.844;2023-06-26T04:44:00;5.47;;;3.10;;
53545;SDS011;39432;51.902;10.844;2023-06-26T04:46:30;4.78;;;3.20;;
53545;SDS011;39432;51.902;10.844;2023-06-26T04:49:00;5.75;;;2.85;;
53545;SDS011;39432;51.902;10.844;2023-06-26T04:51:30;3.78;;;2.63;;
53545;SDS011;39432;51.902;10.844;2023-06-26T04:54:00;5.95;;;3.15;;
53545;SDS011;39432;51.902;10.844;2023-06-26T04:56:29;8.02;;;3.25;;
53545;SDS011;39432;51.902;10.844;2023-06-26T04:59:02;6.63;;;2.92;;
53545;SDS011;39432;51.902;10.844;2023-06-26T05:01:32;3.70;;;2.88;;
53545;SDS011;39432;51.902;10.844;2023-06-26T05:04:07;4.50;;;2.83;;
53545;SDS011;39432;51.902;10.844;2023-06-26T05:06:37;6.32;;;3.33;;
53545;SDS011;39432;51.902;10.844;2023-06-26T05:09:06;5.13;;;2.83;;
53545;SDS011;39432;51.902;10.844;2023-06-26T05:11:37;4.82;;;2.90;;
53545;SDS011;39432;51.902;10.844;2023-06-26T05:14:09;4.35;;;2.78;;
53545;SDS011;39432;51.902;10.844;2023-06-26T05:16:40;8.73;;;3.00;;
53545;SDS011;39432;51.902;10.844;2023-06-26T05:19:10;4.47;;;3.00;;
53545;SDS011;39432;51.902;10.844;2023-06-26T05:21:40;5.13;;;3.13;;
53545;SDS011;39432;51.902;10.844;2023-06-26T05:24:11;4.85;;;2.80;;
53545;SDS011;39432;51.902;10.844;2023-06-26T05:26:42;9.98;;;3.20;;
53545;SDS011;39432;51.902;10.844;2023-06-26T05:29:15;6.65;;;3.20;;
53545;SDS011;39432;51.902;10.844;2023-06-26T05:31:45;6.13;;;3.15;;
53545;SDS011;39432;51.902;10.844;2023-06-26T05:34:18;5.53;;;3.33;;
53545;SDS011;39432;51.902;10.844;2023-06-26T05:36:52;5.82;;;3.63;;
53545;SDS011;39432;51.902;10.844;2023-06-26T05:39:27;16.15;;;3.92;;
53545;SDS011;39432;51.902;10.844;2023-06-26T05:41:57;4.60;;;3.08;;
53545;SDS011;39432;51.902;10.844;2023-06-26T05:44:30;5.30;;;3.75;;
53545;SDS011;39432;51.902;10.844;2023-06-26T05:47:00;5.45;;;3.10;;
53545;SDS011;39432;51.902;10.844;2023-06-26T05:49:30;6.65;;;2.80;;
53545;SDS011;39432;51.902;10.844;2023-06-26T05:52:00;5.95;;;2.90;;
53545;SDS011;39432;51.902;10.844;2023-06-26T05:54:30;5.03;;;2.90;;
53545;SDS011;39432;51.902;10.844;2023-06-26T05:57:01;6.68;;;2.78;;
53545;SDS011;39432;51.902;10.844;2023-06-26T05:59:35;5.82;;;3.40;;
53545;SDS011;39432;51.902;10.844;2023-06-26T06:02:08;4.45;;;2.70;;
53545;SDS011;39432;51.902;10.844;2023-06-26T06:04:39;4.15;;;3.10;;
53545;SDS011;39432;51.902;10.844;2023-06-26T06:07:08;4.53;;;2.85;;
53545;SDS011;39432;51.902;10.844;2023-06-26T06:09:38;7.95;;;3.20;;
53545;SDS011;39432;51.902;10.844;2023-06-26T06:12:09;6.78;;;2.53;;
53545;SDS011;39432;51.902;10.844;2023-06-26T06:14:41;3.92;;;3.05;;
53545;SDS011;39432;51.902;10.844;2023-06-26T06:17:11;7.05;;;3.13;;
53545;SDS011;39432;51.902;10.844;2023-06-26T06:19:41;4.03;;;2.72;;
53545;SDS011;39432;51.902;10.844;2023-06-26T06:22:11;7.97;;;3.00;;
53545;SDS011;39432;51.902;10.844;2023-06-26T06:24:41;8.30;;;3.38;;
53545;SDS011;39432;51.902;10.844;2023-06-26T06:27:10;6.80;;;3.17;;
53545;SDS011;39432;51.902;10.844;2023-06-26T06:29:43;7.68;;;3.28;;
53545;SDS011;39432;51.902;10.844;2023-06-26T06:32:13;5.32;;;3.40;;
53545;SDS011;39432;51.902;10.844;2023-06-26T06:34:43;7.15;;;3.17;;
53545;SDS011;39432;51.902;10.844;2023-06-26T06:37:13;5.60;;;2.88;;
53545;SDS011;39432;51.902;10.844;2023-06-26T06:39:43;6.22;;;3.13;;
53545;SDS011;39432;51.902;10.844;2023-06-26T06:42:13;4.13;;;3.17;;
53545;SDS011;39432;51.902;10.844;2023-06-26T06:44:47;4.88;;;3.03;;
53545;SDS011;39432;51.902;10.844;2023-06-26T06:47:17;4.53;;;3.00;;
53545;SDS011;39432;51.902;10.844;2023-06-26T06:49:47;4.85;;;3.20;;
53545;SDS011;39432;51.902;10.844;2023-06-26T06:52:16;4.60;;;3.25;;
53545;SDS011;39432;51.902;10.844;2023-06-26T06:54:56;10.95;;;3.40;;
53545;SDS011;39432;51.902;10.844;2023-06-26T06:57:32;6.78;;;3.50;;
53545;SDS011;39432;51.902;10.844;2023-06-26T07:00:07;5.22;;;3.58;;
53545;SDS011;39432;51.902;10.844;2023-06-26T07:02:39;4.95;;;3.25;;
53545;SDS011;39432;51.902;10.844;2023-06-26T07:05:11;5.45;;;3.60;;
53545;SDS011;39432;51.902;10.844;2023-06-26T07:07:41;8.35;;;3.25;;
53545;SDS011;39432;51.902;10.844;2023-06-26T07:10:12;7.07;;;3.50;;
53545;SDS011;39432;51.902;10.844;2023-06-26T07:12:42;4.25;;;3.30;;
53545;SDS011;39432;51.902;10.844;2023-06-26T07:15:16;6.35;;;3.50;;
53545;SDS011;39432;51.902;10.844;2023-06-26T07:17:46;5.60;;;3.45;;
53545;SDS011;39432;51.902;10.844;2023-06-26T07:20:16;8.10;;;3.40;;
53545;SDS011;39432;51.902;10.844;2023-06-26T07:22:46;5.75;;;3.65;;
53545;SDS011;39432;51.902;10.844;2023-06-26T07:25:16;4.65;;;3.40;;
53545;SDS011;39432;51.902;10.844;2023-06-26T07:27:46;5.03;;;3.15;;
53545;SDS011;39432;51.902;10.844;2023-06-26T07:30:18;5.40;;;3.65;;
53545;SDS011;39432;51.902;10.844;2023-06-26T07:32:48;4.40;;;3.35;;
53545;SDS011;39432;51.902;10.844;2023-06-26T07:35:18;5.40;;;3.75;;
53545;SDS011;39432;51.902;10.844;2023-06-26T07:37:48;7.07;;;3.53;;
53545;SDS011;39432;51.902;10.844;2023-06-26T07:40:18;6.90;;;3.72;;
53545;SDS011;39432;51.902;10.844;2023-06-26T07:42:47;6.80;;;3.60;;
53545;SDS011;39432;51.902;10.844;2023-06-26T07:45:20;4.63;;;3.20;;
53545;SDS011;39432;51.902;10.844;2023-06-26T07:47:52;4.55;;;3.65;;
53545;SDS011;39432;51.902;10.844;2023-06-26T07:50:22;5.18;;;3.50;;
53545;SDS011;39432;51.902;10.844;2023-06-26T07:52:52;5.53;;;3.38;;
53545;SDS011;39432;51.902;10.844;2023-06-26T07:55:22;4.22;;;3.60;;
53545;SDS011;39432;51.902;10.844;2023-06-26T07:57:53;4.10;;;3.50;;
53545;SDS011;39432;51.902;10.844;2023-06-26T08:00:25;4.68;;;3.75;;
53545;SDS011;39432;51.902;10.844;2023-06-26T08:02:55;5.78;;;4.15;;
53545;SDS011;39432;51.902;10.844;2023-06-26T08:05:25;8.77;;;3.42;;
53545;SDS011;39432;51.902;10.844;2023-06-26T08:07:55;5.68;;;3.42;;
53545;SDS011;39432;51.902;10.844;2023-06-26T08:10:25;4.93;;;3.33;;
53545;SDS011;39432;51.902;10.844;2023-06-26T08:12:55;4.35;;;3.47;;
53545;SDS011;39432;51.902;10.844;2023-06-26T08:15:28;6.55;;;3.47;;
53545;SDS011;39432;51.902;10.844;2023-06-26T08:17:58;8.13;;;3.40;;
53545;SDS011;39432;51.902;10.844;2023-06-26T08:20:28;4.88;;;3.35;;
53545;SDS011;39432;51.902;10.844;2023-06-26T08:22:58;7.43;;;3.28;;
53545;SDS011;39432;51.902;10.844;2023-06-26T08:25:28;4.65;;;3.13;;
53545;SDS011;39432;51.902;10.844;2023-06-26T08:27:58;7.47;;;3.40;;
53545;SDS011;39432;51.902;10.844;2023-06-26T08:30:31;5.30;;;3.22;;
53545;SDS011;39432;51.902;10.844;2023-06-26T08:33:02;5.35;;;3.17;;
53545;SDS011;39432;51.902;10.844;2023-06-26T08:35:32;7.03;;;3.58;;
53545;SDS011;39432;51.902;10.844;2023-06-26T08:38:01;6.88;;;3.72;;
53545;SDS011;39432;51.902;10.844;2023-06-26T08:40:31;6.72;;;3.58;;
53545;SDS011;39432;51.902;10.844;2023-06-26T08:43:03;5.70;;;3.83;;
53545;SDS011;39432;51.902;10.844;2023-06-26T08:45:36;6.40;;;3.35;;
53545;SDS011;39432;51.902;10.844;2023-06-26T08:48:07;7.55;;;4.03;;
53545;SDS011;39432;51.902;10.844;2023-06-26T08:50:38;4.85;;;3.80;;
53545;SDS011;39432;51.902;10.844;2023-06-26T08:53:09;12.48;;;3.72;;
53545;SDS011;39432;51.902;10.844;2023-06-26T08:55:50;4.45;;;3.05;;
53545;SDS011;39432;51.902;10.844;2023-06-26T08:58:22;6.55;;;3.95;;
53545;SDS011;39432;51.902;10.844;2023-06-26T09:00:54;4.88;;;3.42;;
53545;SDS011;39432;51.902;10.844;2023-06-26T09:03:25;5.28;;;3.05;;
53545;SDS011;39432;51.902;10.844;2023-06-26T09:05:55;3.75;;;3.00;;
53545;SDS011;39432;51.902;10.844;2023-06-26T09:08:25;11.63;;;3.38;;
53545;SDS011;39432;51.902;10.844;2023-06-26T09:10:55;6.15;;;3.08;;
53545;SDS011;39432;51.902;10.844;2023-06-26T09:13:25;4.40;;;3.20;;
53545;SDS011;39432;51.902;10.844;2023-06-26T09:15:58;6.45;;;3.55;;
53545;SDS011;39432;51.902;10.844;2023-06-26T09:18:29;6.15;;;2.83;;
53545;SDS011;39432;51.902;10.844;2023-06-26T09:20:58;5.82;;;2.90;;
53545;SDS011;39432;51.902;10.844;2023-06-26T09:23:29;4.72;;;3.10;;
53545;SDS011;39432;51.902;10.844;2023-06-26T09:25:59;9.77;;;3.50;;
53545;SDS011;39432;51.902;10.844;2023-06-26T09:28:32;5.68;;;3.63;;
53545;SDS011;39432;51.902;10.844;2023-06-26T09:31:05;8.05;;;3.58;;
53545;SDS011;39432;51.902;10.844;2023-06-26T09:33:37;4.70;;;3.30;;
53545;SDS011;39432;51.902;10.844;2023-06-26T09:36:20;6.50;;;3.67;;
53545;SDS011;39432;51.902;10.844;2023-06-26T09:38:51;5.05;;;3.08;;
53545;SDS011;39432;51.902;10.844;2023-06-26T09:41:21;7.03;;;3.55;;
53545;SDS011;39432;51.902;10.844;2023-06-26T09:43:51;4.85;;;3.38;;
53545;SDS011;39432;51.902;10.844;2023-06-26T09:46:27;4.00;;;3.00;;
53545;SDS011;39432;51.902;10.844;2023-06-26T09:49:00;8.50;;;3.90;;
53545;SDS011;39432;51.902;10.844;2023-06-26T09:51:31;4.85;;;3.50;;
53545;SDS011;39432;51.902;10.844;2023-06-26T09:54:02;3.50;;;2.95;;
53545;SDS011;39432;51.902;10.844;2023-06-26T09:56:33;4.20;;;2.90;;
53545;SDS011;39432;51.902;10.844;2023-06-26T09:59:06;5.63;;;3.20;;
53545;SDS011;39432;51.902;10.844;2023-06-26T10:01:39;7.13;;;3.03;;
53545;SDS011;39432;51.902;10.844;2023-06-26T10:04:10;6.43;;;3.30;;
53545;SDS011;39432;51.902;10.844;2023-06-26T10:06:41;5.30;;;3.47;;
53545;SDS011;39432;51.902;10.844;2023-06-26T10:09:16;3.85;;;3.08;;
53545;SDS011;39432;51.902;10.844;2023-06-26T10:11:48;4.75;;;3.00;;
53545;SDS011;39432;51.902;10.844;2023-06-26T10:14:23;6.75;;;3.13;;
53545;SDS011;39432;51.902;10.844;2023-06-26T10:16:59;4.15;;;3.22;;
53545;SDS011;39432;51.902;10.844;2023-06-26T10:19:33;6.15;;;3.13;;
53545;SDS011;39432;51.902;10.844;2023-06-26T10:22:05;3.80;;;3.22;;
53545;SDS011;39432;51.902;10.844;2023-06-26T10:24:36;5.05;;;3.28;;
53545;SDS011;39432;51.902;10.844;2023-06-26T10:27:10;6.20;;;3.42;;
53545;SDS011;39432;51.902;10.844;2023-06-26T10:29:46;6.13;;;3.30;;
53545;SDS011;39432;51.902;10.844;2023-06-26T10:32:22;4.07;;;3.10;;
53545;SDS011;39432;51.902;10.844;2023-06-26T10:34:54;8.23;;;3.47;;
53545;SDS011;39432;51.902;10.844;2023-06-26T10:37:40;4.80;;;3.30;;
53545;SDS011;39432;51.902;10.844;2023-06-26T10:40:10;4.18;;;3.20;;
53545;SDS011;39432;51.902;10.844;2023-06-26T10:42:40;6.18;;;3.40;;
53545;SDS011;39432;51.902;10.844;2023-06-26T10:45:11;3.80;;;2.97;;
53545;SDS011;39432;51.902;10.844;2023-06-26T10:47:48;3.78;;;3.22;;
53545;SDS011;39432;51.902;10.844;2023-06-26T10:50:22;5.28;;;3.03;;
53545;SDS011;39432;51.902;10.844;2023-06-26T10:53:07;7.72;;;3.80;;
53545;SDS011;39432;51.902;10.844;2023-06-26T10:55:49;5.05;;;3.58;;
53545;SDS011;39432;51.902;10.844;2023-06-26T10:58:29;8.88;;;3.72;;
53545;SDS011;39432;51.902;10.844;2023-06-26T11:04:00;9.40;;;4.15;;
53545;SDS011;39432;51.902;10.844;2023-06-26T11:06:34;4.68;;;3.88;;
53545;SDS011;39432;51.902;10.844;2023-06-26T11:09:09;10.48;;;4.00;;
53545;SDS011;39432;51.902;10.844;2023-06-26T11:11:56;7.27;;;4.20;;
53545;SDS011;39432;51.902;10.844;2023-06-26T11:14:34;5.80;;;3.90;;
53545;SDS011;39432;51.902;10.844;2023-06-26T11:17:04;6.30;;;3.75;;
53545;SDS011;39432;51.902;10.844;2023-06-26T11:19:37;5.97;;;3.95;;
53545;SDS011;39432;51.902;10.844;2023-06-26T11:22:12;9.73;;;4.47;;
53545;SDS011;39432;51.902;10.844;2023-06-26T11:24:44;6.90;;;4.65;;
53545;SDS011;39432;51.902;10.844;2023-06-26T11:27:15;6.45;;;4.32;;
53545;SDS011;39432;51.902;10.844;2023-06-26T11:29:47;8.38;;;4.38;;
53545;SDS011;39432;51.902;10.844;2023-06-26T11:32:17;10.50;;;5.28;;
53545;SDS011;39432;51.902;10.844;2023-06-26T11:34:50;7.18;;;4.90;;
53545;SDS011;39432;51.902;10.844;2023-06-26T11:37:20;8.60;;;5.05;;
53545;SDS011;39432;51.902;10.844;2023-06-26T11:39:51;19.33;;;4.93;;
53545;SDS011;39432;51.902;10.844;2023-06-26T11:42:21;7.78;;;4.60;;
53545;SDS011;39432;51.902;10.844;2023-06-26T11:44:51;11.10;;;4.88;;
53545;SDS011;39432;51.902;10.844;2023-06-26T11:47:22;8.95;;;4.85;;
53545;SDS011;39432;51.902;10.844;2023-06-26T11:49:54;9.15;;;5.10;;
53545;SDS011;39432;51.902;10.844;2023-06-26T11:52:24;9.48;;;4.63;;
53545;SDS011;39432;51.902;10.844;2023-06-26T11:54:54;8.95;;;4.50;;
53545;SDS011;39432;51.902;10.844;2023-06-26T11:57:24;7.03;;;4.32;;
53545;SDS011;39432;51.902;10.844;2023-06-26T11:59:53;11.25;;;5.07;;
53545;SDS011;39432;51.902;10.844;2023-06-26T12:02:23;6.78;;;5.00;;
53545;SDS011;39432;51.902;10.844;2023-06-26T12:04:56;10.10;;;4.78;;
53545;SDS011;39432;51.902;10.844;2023-06-26T12:07:26;8.80;;;4.25;;
53545;SDS011;39432;51.902;10.844;2023-06-26T12:09:56;7.50;;;4.38;;
53545;SDS011;39432;51.902;10.844;2023-06-26T12:12:26;7.72;;;4.22;;
53545;SDS011;39432;51.902;10.844;2023-06-26T12:14:56;14.07;;;4.55;;
53545;SDS011;39432;51.902;10.844;2023-06-26T12:17:27;25.55;;;4.53;;
53545;SDS011;39432;51.902;10.844;2023-06-26T12:20:00;10.85;;;4.03;;
53545;SDS011;39432;51.902;10.844;2023-06-26T12:22:33;7.90;;;3.92;;
53545;SDS011;39432;51.902;10.844;2023-06-26T12:25:04;7.13;;;4.15;;
53545;SDS011;39432;51.902;10.844;2023-06-26T12:27:37;9.27;;;4.50;;
53545;SDS011;39432;51.902;10.844;2023-06-26T12:30:07;7.78;;;4.57;;
53545;SDS011;39432;51.902;10.844;2023-06-26T12:32:37;7.45;;;4.60;;
53545;SDS011;39432;51.902;10.844;2023-06-26T12:35:10;10.23;;;5.30;;
53545;SDS011;39432;51.902;10.844;2023-06-26T12:37:39;8.02;;;4.50;;
53545;SDS011;39432;51.902;10.844;2023-06-26T12:40:16;9.02;;;4.82;;
53545;SDS011;39432;51.902;10.844;2023-06-26T12:42:49;9.45;;;5.47;;
53545;SDS011;39432;51.902;10.844;2023-06-26T12:45:19;8.85;;;5.35;;
53545;SDS011;39432;51.902;10.844;2023-06-26T12:48:06;9.40;;;5.88;;
53545;SDS011;39432;51.902;10.844;2023-06-26T12:50:42;11.20;;;6.40;;
53545;SDS011;39432;51.902;10.844;2023-06-26T12:53:13;13.73;;;6.15;;
53545;SDS011;39432;51.902;10.844;2023-06-26T12:55:43;8.95;;;6.38;;
53545;SDS011;39432;51.902;10.844;2023-06-26T12:58:12;8.32;;;6.55;;
53545;SDS011;39432;51.902;10.844;2023-06-26T13:00:44;8.48;;;5.78;;
53545;SDS011;39432;51.902;10.844;2023-06-26T13:03:13;10.18;;;6.85;;
53545;SDS011;39432;51.902;10.844;2023-06-26T13:05:46;9.55;;;5.40;;
53545;SDS011;39432;51.902;10.844;2023-06-26T13:08:16;6.80;;;4.50;;
53545;SDS011;39432;51.902;10.844;2023-06-26T13:10:46;5.63;;;3.67;;
53545;SDS011;39432;51.902;10.844;2023-06-26T13:13:16;8.10;;;4.45;;
53545;SDS011;39432;51.902;10.844;2023-06-26T13:15:46;6.63;;;4.68;;
53545;SDS011;39432;51.902;10.844;2023-06-26T13:18:16;7.25;;;4.72;;
53545;SDS011;39432;51.902;10.844;2023-06-26T13:20:49;8.98;;;4.47;;
53545;SDS011;39432;51.902;10.844;2023-06-26T13:23:19;8.18;;;4.70;;
53545;SDS011;39432;51.902;10.844;2023-06-26T13:25:49;11.57;;;4.80;;
53545;SDS011;39432;51.902;10.844;2023-06-26T13:28:19;12.32;;;5.40;;
53545;SDS011;39432;51.902;10.844;2023-06-26T13:30:49;14.48;;;4.75;;
53545;SDS011;39432;51.902;10.844;2023-06-26T13:33:19;6.47;;;4.68;;
53545;SDS011;39432;51.902;10.844;2023-06-26T13:35:54;8.20;;;4.78;;
53545;SDS011;39432;51.902;10.844;2023-06-26T13:38:24;7.47;;;4.80;;
53545;SDS011;39432;51.902;10.844;2023-06-26T13:40:54;10.07;;;4.93;;
53545;SDS011;39432;51.902;10.844;2023-06-26T13:43:27;8.60;;;4.78;;
53545;SDS011;39432;51.902;10.844;2023-06-26T13:45:58;8.48;;;5.10;;
53545;SDS011;39432;51.902;10.844;2023-06-26T13:48:29;6.10;;;4.75;;
53545;SDS011;39432;51.902;10.844;2023-06-26T14:03:03;8.23;;;4.85;;
53545;SDS011;39432;51.902;10.844;2023-06-26T14:05:34;7.40;;;4.75;;
53545;SDS011;39432;51.902;10.844;2023-06-26T14:08:08;7.40;;;4.53;;
53545;SDS011;39432;51.902;10.844;2023-06-26T14:10:38;9.52;;;4.95;;
53545;SDS011;39432;51.902;10.844;2023-06-26T14:13:08;8.77;;;4.90;;
53545;SDS011;39432;51.902;10.844;2023-06-26T14:15:41;9.50;;;5.00;;
53545;SDS011;39432;51.902;10.844;2023-06-26T14:18:14;6.38;;;4.55;;
53545;SDS011;39432;51.902;10.844;2023-06-26T14:20:44;10.07;;;4.80;;
53545;SDS011;39432;51.902;10.844;2023-06-26T14:23:14;8.05;;;5.00;;
53545;SDS011;39432;51.902;10.844;2023-06-26T14:25:44;8.13;;;4.68;;
53545;SDS011;39432;51.902;10.844;2023-06-26T14:28:15;5.50;;;3.85;;
53545;SDS011;39432;51.902;10.844;2023-06-26T14:30:45;6.18;;;3.90;;
53545;SDS011;39432;51.902;10.844;2023-06-26T14:33:17;7.45;;;3.33;;
53545;SDS011;39432;51.902;10.844;2023-06-26T14:35:47;4.90;;;3.45;;
53545;SDS011;39432;51.902;10.844;2023-06-26T14:38:17;7.82;;;3.75;;
53545;SDS011;39432;51.902;10.844;2023-06-26T14:40:47;9.98;;;3.92;;
53545;SDS011;39432;51.902;10.844;2023-06-26T14:43:17;4.05;;;3.08;;
53545;SDS011;39432;51.902;10.844;2023-06-26T14:45:47;6.38;;;3.40;;
53545;SDS011;39432;51.902;10.844;2023-06-26T14:48:20;7.63;;;3.63;;
53545;SDS011;39432;51.902;10.844;2023-06-26T14:50:50;5.15;;;3.10;;
53545;SDS011;39432;51.902;10.844;2023-06-26T14:53:20;10.00;;;4.15;;
53545;SDS011;39432;51.902;10.844;2023-06-26T14:55:50;7.60;;;3.05;;
53545;SDS011;39432;51.902;10.844;2023-06-26T14:58:19;4.55;;;2.97;;
53545;SDS011;39432;51.902;10.844;2023-06-26T15:00:49;5.50;;;2.72;;
53545;SDS011;39432;51.902;10.844;2023-06-26T15:03:22;6.70;;;3.00;;
53545;SDS011;39432;51.902;10.844;2023-06-26T15:05:52;5.88;;;2.90;;
53545;SDS011;39432;51.902;10.844;2023-06-26T15:08:21;7.70;;;2.78;;
53545;SDS011;39432;51.902;10.844;2023-06-26T15:10:51;5.32;;;2.95;;
53545;SDS011;39432;51.902;10.844;2023-06-26T15:13:21;6.13;;;3.00;;